Time;durP1;ratioP1;P1;durP2;ratioP2;P2;SDS_P1;SDS_P2;PMS_P1;PMS_P2;Temp;Humidity;BMP_temperature;BMP_pressure;BME280_temperature;BME280_humidity;BME280_pressure;Samples;Min_cycle;Max_cycle;Signal;HPM_P1;HPM_P2
2022/05/27 04:00:31;;;;;;;2.83;1.30;;;14.30;96.30;;;;;;5881430;23;21591;-74
2022/05/27 04:02:56;;;;;;;2.40;1.20;;;14.30;96.30;;;;;;4976057;28;20465;-74
2022/05/27 04:05:22;;;;;;;4.10;1.50;;;14.30;96.30;;;;;;4976250;28;20178;-77
2022/05/27 04:07:48;;;;;;;8.23;1.40;;;14.30;96.30;;;;;;4975802;28;20569;-74
2022/05/27 04:10:15;;;;;;;4.50;1.53;;;14.30;96.30;;;;;;4976181;28;20225;-74
2022/05/27 04:12:40;;;;;;;8.80;2.30;;;14.30;96.30;;;;;;4976125;28;20179;-74
2022/05/27 04:15:06;;;;;;;2.93;1.37;;;14.30;96.30;;;;;;4976569;28;20418;-74
2022/05/27 04:17:32;;;;;;;4.00;1.27;;;14.30;96.30;;;;;;4976084;28;20178;-74
2022/05/27 04:20:06;;;;;;;2.70;1.43;;;14.30;96.30;;;;;;4958599;28;20495;-74
2022/05/27 04:27:43;;;;;;;2.53;1.30;;;14.30;96.30;;;;;;5420470;23;20509;-74
2022/05/27 04:30:10;;;;;;;3.50;1.40;;;14.30;96.30;;;;;;4973683;28;20410;-76
2022/05/27 04:32:35;;;;;;;4.83;1.43;;;14.30;96.30;;;;;;4974131;28;20178;-76
2022/05/27 04:35:01;;;;;;;3.33;1.30;;;14.30;96.30;;;;;;4974167;28;20492;-75
2022/05/27 04:37:26;;;;;;;3.00;1.30;;;14.40;96.30;;;;;;4974496;28;20325;-74
2022/05/27 04:39:52;;;;;;;2.10;1.53;;;14.30;96.30;;;;;;4975514;28;20205;-74
2022/05/27 04:42:18;;;;;;;2.97;1.13;;;14.40;96.30;;;;;;4973726;28;20720;-75
2022/05/27 04:44:43;;;;;;;2.90;1.10;;;14.30;96.30;;;;;;4974757;28;20194;-75
2022/05/27 04:47:11;;;;;;;3.33;1.70;;;14.30;96.30;;;;;;4974683;28;20476;-75
2022/05/27 04:49:58;;;;;;;2.03;1.30;;;14.30;96.30;;;;;;4974082;28;20170;-76
2022/05/27 04:52:31;;;;;;;1.80;1.23;;;14.20;96.30;;;;;;4974290;28;20830;-76
2022/05/27 04:55:00;;;;;;;3.27;1.53;;;14.10;96.30;;;;;;4957535;28;20464;-78
2022/05/27 04:57:31;;;;;;;2.87;1.50;;;14.00;96.30;;;;;;4974287;28;20989;-77
2022/05/27 04:59:57;;;;;;;5.03;1.63;;;13.90;96.30;;;;;;4957481;28;20432;-78
2022/05/27 05:02:24;;;;;;;5.27;1.43;;;13.80;96.30;;;;;;4956863;28;20476;-77
2022/05/27 05:04:50;;;;;;;7.77;1.63;;;13.80;96.30;;;;;;4957311;28;20437;-78
2022/05/27 05:07:19;;;;;;;4.17;1.43;;;13.70;96.30;;;;;;4974605;28;20508;-77
2022/05/27 05:09:45;;;;;;;5.57;1.40;;;13.60;96.30;;;;;;4973780;28;20409;-77
2022/05/27 05:12:12;;;;;;;4.80;1.90;;;13.50;96.30;;;;;;4974426;28;20488;-76
2022/05/27 05:14:38;;;;;;;2.73;1.67;;;13.50;96.30;;;;;;4974465;28;20174;-76
2022/05/27 05:17:04;;;;;;;3.67;1.70;;;13.60;96.30;;;;;;4956873;28;20461;-76
2022/05/27 05:19:29;;;;;;;3.40;1.73;;;13.60;96.30;;;;;;4973758;28;20418;-77
2022/05/27 05:21:55;;;;;;;5.07;1.93;;;13.60;96.30;;;;;;4974195;28;20222;-76
2022/05/27 05:24:21;;;;;;;4.57;1.30;;;13.60;96.30;;;;;;4974204;28;20301;-78
2022/05/27 05:26:46;;;;;;;3.67;1.40;;;13.50;96.30;;;;;;4973155;28;20321;-77
2022/05/27 05:29:12;;;;;;;7.53;1.80;;;13.50;96.30;;;;;;4973470;28;20500;-78
2022/05/27 05:31:37;;;;;;;6.03;1.70;;;13.50;96.30;;;;;;4956712;28;20202;-77
2022/05/27 05:34:03;;;;;;;5.10;1.43;;;13.50;96.30;;;;;;4974060;28;20174;-77
2022/05/27 05:36:30;;;;;;;3.70;1.60;;;13.50;96.30;;;;;;4973030;28;20186;-78
2022/05/27 05:38:56;;;;;;;2.33;1.30;;;13.50;96.30;;;;;;4964147;28;20170;-77
2022/05/27 05:41:30;;;;;;;7.97;1.97;;;13.50;96.30;;;;;;4963558;28;20461;-78
2022/05/27 05:43:56;;;;;;;4.27;1.70;;;13.50;96.30;;;;;;4953721;29;20425;-77
2022/05/27 05:46:23;;;;;;;2.37;1.40;;;13.50;96.30;;;;;;4955231;29;20417;-77
2022/05/27 05:48:49;;;;;;;3.10;1.70;;;13.50;96.30;;;;;;4937933;29;20919;-78
2022/05/27 05:51:15;;;;;;;2.87;1.40;;;13.50;96.30;;;;;;4955164;28;20439;-77
2022/05/27 05:53:40;;;;;;;4.27;1.77;;;13.60;96.30;;;;;;4944440;29;20183;-76
2022/05/27 05:56:06;;;;;;;8.93;1.60;;;13.60;96.30;;;;;;4964973;28;20190;-77
2022/05/27 05:58:31;;;;;;;4.23;1.17;;;13.70;96.30;;;;;;4971259;28;20206;-75
2022/05/27 06:00:57;;;;;;;2.80;1.40;;;13.80;96.30;;;;;;4973907;28;20576;-75
2022/05/27 06:03:22;;;;;;;3.87;1.50;;;13.90;96.30;;;;;;4956103;28;20705;-76
2022/05/27 06:05:48;;;;;;;3.40;1.20;;;13.90;96.30;;;;;;4973707;28;20187;-75
2022/05/27 06:08:15;;;;;;;4.20;2.13;;;13.90;96.30;;;;;;4974008;28;20170;-74
2022/05/27 06:10:40;;;;;;;4.40;1.60;;;13.90;96.30;;;;;;4974452;28;20186;-76
2022/05/27 06:13:06;;;;;;;3.43;1.40;;;13.90;96.30;;;;;;4974416;28;20421;-74
2022/05/27 06:15:31;;;;;;;3.93;1.53;;;13.90;96.30;;;;;;4974285;28;20214;-74
2022/05/27 06:17:59;;;;;;;22.10;2.60;;;14.00;96.30;;;;;;4973866;28;20193;-74
2022/05/27 06:20:25;;;;;;;2.80;1.50;;;14.00;96.30;;;;;;4956797;28;20182;-74
2022/05/27 06:22:51;;;;;;;4.67;1.70;;;14.10;96.30;;;;;;4968046;28;20469;-74
2022/05/27 06:25:16;;;;;;;1.87;1.10;;;14.20;96.30;;;;;;4937596;29;20781;-74
2022/05/27 06:27:42;;;;;;;5.33;1.50;;;14.20;96.30;;;;;;4964863;28;20197;-74
2022/05/27 06:35:37;;;;;;;5.77;1.60;;;14.20;96.30;;;;;;4952679;28;20430;-77
2022/05/27 06:38:03;;;;;;;3.93;1.67;;;14.10;96.30;;;;;;4955257;28;20543;-78
2022/05/27 06:40:29;;;;;;;3.80;1.33;;;14.00;96.30;;;;;;4950766;28;20509;-74
2022/05/27 06:42:54;;;;;;;4.27;1.33;;;14.00;96.30;;;;;;4953847;28;20234;-74
2022/05/27 06:45:20;;;;;;;3.30;1.47;;;13.90;96.30;;;;;;4954113;29;20519;-74
2022/05/27 06:47:45;;;;;;;7.50;1.90;;;13.90;96.30;;;;;;4953634;29;20207;-77
2022/05/27 06:50:11;;;;;;;8.87;2.70;;;14.00;96.30;;;;;;4954106;29;20712;-73
2022/05/27 06:52:39;;;;;;;9.87;1.70;;;14.00;96.30;;;;;;4970040;28;20291;-73
2022/05/27 06:55:05;;;;;;;2.40;1.33;;;14.00;96.30;;;;;;4973160;28;20266;-73
2022/05/27 06:57:31;;;;;;;5.10;1.77;;;14.20;96.30;;;;;;4972553;28;20516;-78
2022/05/27 06:59:56;;;;;;;6.63;1.90;;;14.10;96.30;;;;;;4971874;28;20261;-76
2022/05/27 07:02:22;;;;;;;3.90;1.63;;;14.00;96.30;;;;;;4972686;28;20682;-75
2022/05/27 07:04:48;;;;;;;5.10;1.50;;;14.00;96.30;;;;;;4973112;28;20257;-73
2022/05/27 07:07:13;;;;;;;3.13;1.30;;;14.00;96.30;;;;;;4973284;28;20181;-73
2022/05/27 07:09:39;;;;;;;4.70;1.40;;;14.00;96.30;;;;;;4973091;28;20484;-73
2022/05/27 07:12:08;;;;;;;2.73;1.73;;;14.00;96.30;;;;;;4973175;28;20201;-75
2022/05/27 07:14:34;;;;;;;3.70;1.50;;;14.00;96.30;;;;;;4972336;28;20206;-72
2022/05/27 07:17:00;;;;;;;6.90;1.93;;;14.10;96.30;;;;;;4972688;28;20456;-73
2022/05/27 07:19:25;;;;;;;4.53;1.47;;;14.00;96.30;;;;;;4955577;28;20229;-72
2022/05/27 07:21:53;;;;;;;2.57;1.50;;;13.90;96.30;;;;;;4973057;28;20209;-76
2022/05/27 07:24:18;;;;;;;7.33;1.73;;;13.90;96.30;;;;;;4973241;28;20669;-72
2022/05/27 07:26:45;;;;;;;5.67;2.07;;;13.90;96.30;;;;;;4973096;28;20421;-73
2022/05/27 07:29:11;;;;;;;6.47;1.33;;;13.80;96.30;;;;;;4955567;28;20185;-72
2022/05/27 07:31:39;;;;;;;3.73;1.33;;;13.80;96.30;;;;;;4972626;28;20445;-75
2022/05/27 07:34:05;;;;;;;6.40;2.57;;;13.70;96.30;;;;;;4972630;28;20429;-76
2022/05/27 07:36:32;;;;;;;3.80;1.50;;;13.50;96.30;;;;;;4972685;28;20413;-77
2022/05/27 07:38:58;;;;;;;4.17;1.80;;;13.30;96.30;;;;;;4972672;28;20406;-76
2022/05/27 07:41:26;;;;;;;5.27;1.87;;;13.30;96.30;;;;;;4954980;28;20472;-76
2022/05/27 07:43:52;;;;;;;4.60;1.80;;;13.30;96.30;;;;;;4945711;28;20564;-75
2022/05/27 07:46:19;;;;;;;6.20;2.63;;;13.20;96.30;;;;;;4949831;28;20476;-75
2022/05/27 07:48:45;;;;;;;5.50;2.23;;;13.30;96.30;;;;;;4936042;28;20183;-73
2022/05/27 07:51:11;;;;;;;3.13;2.00;;;13.20;96.30;;;;;;4952998;28;20438;-76
2022/05/27 07:53:38;;;;;;;4.43;2.40;;;13.20;96.30;;;;;;4957061;29;20171;-75
2022/05/27 07:56:05;;;;;;;4.20;1.70;;;13.20;96.30;;;;;;4957088;29;20171;-74
2022/05/27 07:58:30;;;;;;;2.50;2.30;;;13.30;96.30;;;;;;4968216;28;20515;-73
2022/05/27 08:00:56;;;;;;;3.60;1.87;;;13.30;96.30;;;;;;4976233;28;20891;-74
2022/05/27 08:03:21;;;;;;;3.83;2.07;;;13.20;96.30;;;;;;4976064;28;20618;-73
2022/05/27 08:05:47;;;;;;;8.13;2.33;;;13.20;96.30;;;;;;4976074;28;20175;-72
2022/05/27 08:08:13;;;;;;;4.47;2.30;;;13.10;96.30;;;;;;4975733;28;20217;-70
2022/05/27 08:10:40;;;;;;;4.73;2.07;;;13.20;96.30;;;;;;4968646;28;20466;-71
2022/05/27 08:13:06;;;;;;;11.13;2.43;;;13.30;96.30;;;;;;4956740;29;20706;-70
2022/05/27 08:15:32;;;;;;;3.70;2.10;;;13.30;96.30;;;;;;4956628;29;20822;-71
2022/05/27 08:17:58;;;;;;;4.10;2.50;;;13.20;96.30;;;;;;4962493;28;20433;-71
2022/05/27 08:20:27;;;;;;;4.73;1.93;;;13.30;96.30;;;;;;4975840;28;20418;-71
2022/05/27 08:22:53;;;;;;;4.07;2.17;;;13.40;96.30;;;;;;4975609;28;20819;-71
2022/05/27 08:25:23;;;;;;;5.00;2.30;;;13.40;96.30;;;;;;4958710;28;20427;-73
2022/05/27 08:27:49;;;;;;;5.17;2.40;;;13.40;96.30;;;;;;4956020;29;20783;-73
2022/05/27 08:30:20;;;;;;;4.33;1.90;;;13.30;96.30;;;;;;4956295;29;20422;-73
2022/05/27 08:32:47;;;;;;;6.53;1.90;;;13.30;96.30;;;;;;4962659;28;20899;-71
2022/05/27 08:38:03;;;;;;;4.23;2.07;;;13.50;96.30;;;;;;4956378;29;20402;-73
2022/05/27 08:41:10;;;;;;;3.80;2.17;;;13.70;96.30;;;;;;4956509;28;20449;-73
2022/05/27 08:43:53;;;;;;;3.50;2.00;;;13.60;96.30;;;;;;4957666;28;20421;-76
2022/05/27 08:46:28;;;;;;;5.77;2.17;;;13.60;96.30;;;;;;4949720;28;20433;-76
2022/05/27 08:48:59;;;;;;;3.43;2.10;;;13.50;96.30;;;;;;4949748;28;20429;-79
2022/05/27 08:51:30;;;;;;;2.93;1.53;;;13.30;96.30;;;;;;4950744;28;20536;-75
2022/05/27 08:54:00;;;;;;;1.07;0.83;;;13.30;96.30;;;;;;4953081;28;20975;-74
2022/05/27 08:59:35;;;;;;;1.50;0.77;;;12.00;96.30;;;;;;4964398;28;21061;-73
2022/05/27 09:02:03;;;;;;;1.80;0.70;;;11.30;96.30;;;;;;4971699;28;20528;-74
2022/05/27 09:04:43;;;;;;;1.10;0.90;;;11.20;96.30;;;;;;4961185;28;20453;-71
2022/05/27 09:07:43;;;;;;;2.03;0.70;;;11.10;96.30;;;;;;4984845;28;20947;-71
2022/05/27 09:10:43;;;;;;;3.73;1.47;;;11.00;96.30;;;;;;4994574;28;20413;-74
2022/05/27 09:13:24;;;;;;;2.63;0.80;;;11.00;96.30;;;;;;4957806;28;20417;-72
2022/05/27 09:15:51;;;;;;;2.23;1.17;;;11.00;96.30;;;;;;4974587;28;20496;-72
2022/05/27 09:18:40;;;;;;;2.13;0.90;;;11.00;96.30;;;;;;4974494;28;20424;-72
2022/05/27 09:21:14;;;;;;;1.47;0.87;;;10.90;96.30;;;;;;4955398;29;20426;-73
2022/05/27 09:24:02;;;;;;;5.43;1.20;;;10.80;96.30;;;;;;4955453;29;20461;-73
2022/05/27 09:26:45;;;;;;;2.57;1.10;;;10.80;96.30;;;;;;4961083;28;20430;-73
2022/05/27 09:29:27;;;;;;;1.30;0.90;;;10.80;96.30;;;;;;4955241;28;20423;-76
2022/05/27 09:32:19;;;;;;;1.67;0.90;;;10.80;96.30;;;;;;4961377;28;20433;-75
2022/05/27 09:34:46;;;;;;;3.07;1.23;;;10.80;96.30;;;;;;4971529;28;20476;-74
2022/05/27 09:37:27;;;;;;;1.13;1.03;;;10.80;96.30;;;;;;4970468;28;20453;-77
2022/05/27 09:39:57;;;;;;;1.40;0.90;;;11.00;96.30;;;;;;4959836;28;20936;-73
2022/05/27 09:42:31;;;;;;;1.30;1.00;;;11.10;96.30;;;;;;4959576;28;20578;-72
2022/05/27 09:44:58;;;;;;;3.20;1.00;;;11.20;96.30;;;;;;4963423;28;20460;-73
2022/05/27 09:47:29;;;;;;;1.20;0.80;;;11.40;96.30;;;;;;4964728;28;20428;-76
2022/05/27 09:50:01;;;;;;;1.63;1.10;;;11.60;96.30;;;;;;4963030;28;20481;-77
2022/05/27 09:52:29;;;;;;;1.20;0.80;;;11.70;96.30;;;;;;4942562;28;20536;-74
2022/05/27 09:54:59;;;;;;;1.57;1.17;;;11.80;96.30;;;;;;4945744;28;20544;-75
2022/05/27 09:57:32;;;;;;;1.00;0.60;;;11.80;96.30;;;;;;4957959;28;20446;-74
2022/05/27 10:00:04;;;;;;;0.90;0.70;;;11.90;96.30;;;;;;4957159;28;20446;-73
2022/05/27 10:02:33;;;;;;;1.00;0.60;;;11.80;96.30;;;;;;4958019;28;20469;-72
2022/05/27 10:04:59;;;;;;;1.30;0.67;;;11.60;96.30;;;;;;4957597;28;20437;-72
2022/05/27 10:07:30;;;;;;;2.00;1.13;;;11.40;96.30;;;;;;4971695;28;20421;-73
2022/05/27 10:09:57;;;;;;;4.10;1.00;;;11.50;96.30;;;;;;4970623;28;20413;-73
2022/05/27 10:12:32;;;;;;;2.33;0.90;;;11.70;96.30;;;;;;4960331;28;20450;-75
2022/05/27 10:14:58;;;;;;;1.97;0.80;;;11.90;96.30;;;;;;4945476;28;20448;-74
2022/05/27 10:17:31;;;;;;;4.80;1.27;;;12.10;96.30;;;;;;4975354;28;20418;-82
2022/05/27 10:20:31;;;;;;;1.67;1.10;;;12.30;96.30;;;;;;4974119;28;20186;-78
2022/05/27 10:23:00;;;;;;;1.63;1.03;;;12.20;96.30;;;;;;4973964;28;20460;-73
2022/05/27 10:25:38;;;;;;;4.70;1.40;;;12.30;96.30;;;;;;4974864;28;20433;-73
2022/05/27 10:28:06;;;;;;;2.80;1.10;;;12.40;96.30;;;;;;4979063;28;20425;-75
2022/05/27 10:38:38;;;;;;;2.33;1.20;;;12.70;96.30;;;;;;5623882;23;20479;-75
2022/05/27 10:41:28;;;;;;;7.00;1.10;;;12.70;96.30;;;;;;4990594;28;20940;-75
2022/05/27 10:44:36;;;;;;;1.73;0.90;;;12.70;96.30;;;;;;4966203;28;20438;-78
2022/05/27 10:47:04;;;;;;;5.30;1.30;;;12.70;96.30;;;;;;4976924;28;20420;-78
2022/05/27 10:49:56;;;;;;;6.10;1.20;;;12.80;96.30;;;;;;4976080;28;20893;-77
2022/05/27 10:52:56;;;;;;;2.50;0.97;;;12.90;96.30;;;;;;4956533;28;20810;-77
2022/05/27 10:55:31;;;;;;;4.53;1.30;;;13.00;96.30;;;;;;4949144;28;20439;-76
2022/05/27 11:04:49;;;;;;;4.40;1.53;;;12.90;96.30;;;;;;4953837;29;20453;-76
2022/05/27 11:07:14;;;;;;;1.73;1.23;;;13.00;96.30;;;;;;4967360;28;20774;-78
2022/05/27 11:10:12;;;;;;;4.47;1.70;;;13.20;96.30;;;;;;4992359;28;20984;-79
2022/05/27 11:15:55;;;;;;;5.80;1.50;;;12.60;96.30;;;;;;4980656;28;20420;-77
2022/05/27 11:18:39;;;;;;;2.40;1.50;;;12.50;96.30;;;;;;4978768;28;20432;-78
2022/05/27 11:21:19;;;;;;;5.87;1.67;;;12.60;96.30;;;;;;4958145;28;20452;-79
2022/05/27 11:24:08;;;;;;;3.13;1.80;;;12.70;96.30;;;;;;4961312;28;20930;-79
2022/05/27 11:27:04;;;;;;;3.53;1.87;;;12.90;96.30;;;;;;4969216;28;20512;-78
2022/05/27 11:30:07;;;;;;;2.30;2.00;;;13.10;96.30;;;;;;4970009;28;20492;-76
2022/05/27 11:32:44;;;;;;;3.00;1.60;;;13.00;96.30;;;;;;4992163;28;20463;-76
2022/05/27 11:35:16;;;;;;;1.77;1.40;;;13.00;96.30;;;;;;4988671;28;20429;-75
2022/05/27 11:37:52;;;;;;;2.50;1.50;;;13.30;96.30;;;;;;4950888;28;20441;-77
2022/05/27 11:40:44;;;;;;;2.73;1.67;;;13.10;96.30;;;;;;4975133;28;20421;-75
2022/05/27 11:43:37;;;;;;;4.00;1.67;;;13.10;96.30;;;;;;4947949;28;20503;-77
2022/05/27 11:46:18;;;;;;;1.90;1.60;;;13.20;96.30;;;;;;4965251;28;20446;-76
2022/05/27 11:48:52;;;;;;;1.80;1.43;;;13.30;96.30;;;;;;4976268;28;20459;-77
2022/05/27 11:51:37;;;;;;;2.17;1.70;;;13.40;96.30;;;;;;4976439;28;20488;-78
2022/05/27 11:54:18;;;;;;;1.70;1.60;;;13.40;96.30;;;;;;4976393;28;20448;-78
2022/05/27 11:57:10;;;;;;;2.03;1.70;;;13.70;96.30;;;;;;4976316;28;20432;-78
2022/05/27 11:59:46;;;;;;;5.40;1.77;;;13.80;96.30;;;;;;4976042;28;20460;-78
2022/05/27 12:02:27;;;;;;;4.40;1.87;;;13.70;96.30;;;;;;4976307;28;20467;-77
2022/05/27 12:05:05;;;;;;;4.93;2.23;;;13.70;96.30;;;;;;4976838;28;20422;-78
2022/05/27 12:07:51;;;;;;;4.70;2.40;;;13.60;96.30;;;;;;4976460;28;20827;-77
2022/05/27 12:10:38;;;;;;;2.90;1.80;;;13.50;96.30;;;;;;4974591;28;20421;-76
2022/05/27 12:13:37;;;;;;;3.90;2.10;;;13.40;96.30;;;;;;4964325;28;20584;-76
2022/05/27 12:16:13;;;;;;;1.87;1.60;;;13.10;96.30;;;;;;4976137;28;20428;-76
2022/05/27 12:18:42;;;;;;;3.37;2.00;;;13.30;96.30;;;;;;4975941;28;20409;-76
2022/05/27 12:21:14;;;;;;;2.20;2.00;;;13.80;96.30;;;;;;4976478;28;20967;-77
2022/05/27 12:23:45;;;;;;;3.80;2.20;;;14.10;96.30;;;;;;4976034;28;20504;-77
2022/05/27 12:26:11;;;;;;;5.33;2.00;;;14.10;96.30;;;;;;4976063;28;20418;-77
2022/05/27 12:28:42;;;;;;;3.10;1.93;;;14.10;96.30;;;;;;4981485;28;20421;-78
2022/05/27 12:31:08;;;;;;;2.17;1.67;;;13.80;96.30;;;;;;4982199;28;20194;-77
2022/05/27 12:33:37;;;;;;;3.57;2.13;;;13.70;96.30;;;;;;4980414;28;20406;-76
2022/05/27 12:36:12;;;;;;;8.23;1.93;;;13.70;96.30;;;;;;4975667;28;20441;-77
2022/05/27 12:38:49;;;;;;;11.07;2.30;;;13.80;96.30;;;;;;4975432;28;20432;-78
2022/05/27 12:41:36;;;;;;;2.80;2.20;;;13.70;96.30;;;;;;4964550;28;20456;-77
2022/05/27 12:44:22;;;;;;;5.10;2.60;;;13.60;96.30;;;;;;4954751;29;20521;-78
2022/05/27 12:46:55;;;;;;;3.70;2.30;;;13.30;96.30;;;;;;4968208;28;20435;-77
2022/05/27 12:49:41;;;;;;;4.07;2.17;;;13.30;96.30;;;;;;4972088;28;20444;-75
2022/05/27 12:52:29;;;;;;;3.47;1.63;;;13.20;96.30;;;;;;4962146;28;20450;-77
2022/05/27 12:54:54;;;;;;;2.83;2.43;;;13.20;96.30;;;;;;4973385;28;20981;-77
2022/05/27 13:03:30;;;;;;;2.50;2.10;;;14.90;96.30;;;;;;4986269;28;20527;-77
2022/05/27 13:06:11;;;;;;;3.37;1.80;;;15.40;96.30;;;;;;4975720;28;20422;-78
2022/05/27 13:08:55;;;;;;;6.10;2.20;;;15.60;96.30;;;;;;4957054;28;20429;-78
2022/05/27 13:11:21;;;;;;;4.07;1.70;;;15.60;96.30;;;;;;4966676;28;20446;-78
2022/05/27 13:13:47;;;;;;;2.77;1.80;;;15.50;96.30;;;;;;4974761;28;20418;-78
2022/05/27 13:16:31;;;;;;;6.13;2.00;;;15.70;96.30;;;;;;4974850;28;20186;-77
2022/05/27 13:19:08;;;;;;;5.00;2.10;;;15.90;96.30;;;;;;4975387;28;20480;-77
2022/05/27 13:21:48;;;;;;;9.20;2.73;;;15.60;96.30;;;;;;4955197;28;20473;-75
2022/05/27 13:24:13;;;;;;;3.70;1.90;;;16.20;96.30;;;;;;4974501;28;20420;-76
2022/05/27 13:26:47;;;;;;;3.97;2.20;;;16.20;96.30;;;;;;4974775;28;20489;-77
2022/05/27 13:29:34;;;;;;;2.30;1.60;;;16.20;96.30;;;;;;4973729;28;20233;-76
2022/05/27 13:32:11;;;;;;;3.37;1.70;;;15.90;96.30;;;;;;4974626;28;20441;-76
2022/05/27 13:34:46;;;;;;;3.73;1.97;;;16.00;96.30;;;;;;4957500;28;20413;-76
2022/05/27 13:37:29;;;;;;;2.60;1.70;;;16.20;96.30;;;;;;4974424;28;20479;-76
2022/05/27 13:40:03;;;;;;;8.80;2.33;;;15.90;96.30;;;;;;4974223;28;20405;-76
2022/05/27 13:42:32;;;;;;;3.33;1.80;;;15.70;96.30;;;;;;4973794;28;20460;-76
2022/05/27 13:45:01;;;;;;;3.70;2.03;;;15.80;96.30;;;;;;4987905;28;20941;-76
2022/05/27 13:47:30;;;;;;;2.40;1.87;;;15.80;96.30;;;;;;4984548;28;20424;-77
2022/05/27 13:49:56;;;;;;;3.57;2.23;;;15.80;96.30;;;;;;4974180;28;20935;-75
2022/05/27 13:52:23;;;;;;;3.70;2.00;;;16.00;96.30;;;;;;4956509;28;20528;-75
2022/05/27 13:55:10;;;;;;;2.73;1.67;;;15.90;96.30;;;;;;4973894;28;20205;-75
2022/05/27 13:57:38;;;;;;;2.50;1.97;;;16.60;96.30;;;;;;4973005;28;20414;-76
2022/05/27 14:00:06;;;;;;;4.97;1.93;;;17.00;96.30;;;;;;4974068;28;20449;-76
2022/05/27 14:02:36;;;;;;;3.77;1.90;;;17.00;96.30;;;;;;4956235;28;20552;-75
2022/05/27 14:05:04;;;;;;;4.70;2.03;;;16.80;96.30;;;;;;4973977;28;20488;-76
2022/05/27 14:07:35;;;;;;;2.50;1.70;;;16.70;96.30;;;;;;4973540;28;20505;-74
2022/05/27 14:10:09;;;;;;;4.27;1.80;;;16.40;96.30;;;;;;4972882;28;20402;-74
2022/05/27 14:12:37;;;;;;;4.30;2.20;;;15.90;96.30;;;;;;4956769;28;20502;-74
2022/05/27 14:15:13;;;;;;;3.17;1.63;;;16.00;96.30;;;;;;4973846;28;20933;-74
2022/05/27 14:17:42;;;;;;;3.10;2.10;;;16.00;96.30;;;;;;4973625;28;20445;-74
2022/05/27 14:20:12;;;;;;;5.00;2.07;;;16.00;96.30;;;;;;4973956;28;20421;-75
2022/05/27 14:22:47;;;;;;;5.37;1.87;;;16.00;96.30;;;;;;4956454;28;20522;-79
2022/05/27 14:25:27;;;;;;;3.93;1.77;;;15.90;96.30;;;;;;4974035;28;20397;-74
2022/05/27 14:27:59;;;;;;;2.70;1.77;;;16.00;96.30;;;;;;4973366;28;20480;-74
2022/05/27 14:30:33;;;;;;;5.07;1.70;;;16.40;96.30;;;;;;4973620;28;20417;-74
2022/05/27 14:32:58;;;;;;;5.50;1.83;;;16.40;96.30;;;;;;4973763;28;20497;-75
2022/05/27 14:35:28;;;;;;;9.80;2.27;;;16.80;96.30;;;;;;4973584;28;20445;-77
2022/05/27 14:38:09;;;;;;;2.60;1.67;;;17.00;96.30;;;;;;4973012;28;20273;-74
2022/05/27 14:40:44;;;;;;;4.90;2.23;;;16.80;96.30;;;;;;4973465;28;20433;-75
2022/05/27 14:43:29;;;;;;;4.13;1.90;;;17.40;96.30;;;;;;4973533;28;20936;-74
2022/05/27 14:45:57;;;;;;;4.83;1.70;;;17.90;96.30;;;;;;4973598;28;20884;-77
2022/05/27 14:48:30;;;;;;;2.80;1.50;;;18.20;96.30;;;;;;4972783;28;20450;-77
2022/05/27 14:50:55;;;;;;;5.27;1.70;;;18.40;96.30;;;;;;4973261;28;20445;-75
2022/05/27 14:53:22;;;;;;;3.17;1.90;;;17.90;96.30;;;;;;4973413;28;20890;-75
2022/05/27 14:55:56;;;;;;;2.80;1.50;;;17.10;96.30;;;;;;4973312;28;20210;-74
2022/05/27 14:58:32;;;;;;;7.03;1.77;;;17.10;96.30;;;;;;4972570;28;20413;-75
2022/05/27 15:00:58;;;;;;;6.57;1.33;;;17.50;96.30;;;;;;4973271;28;20528;-75
2022/05/27 15:03:39;;;;;;;2.83;1.37;;;17.40;96.30;;;;;;4973183;28;20523;-75
2022/05/27 15:06:13;;;;;;;2.20;1.30;;;17.00;96.30;;;;;;4952842;29;20521;-75
2022/05/27 15:08:41;;;;;;;2.27;1.13;;;16.30;96.30;;;;;;4953498;29;20399;-76
2022/05/27 15:11:17;;;;;;;4.60;1.30;;;16.00;96.30;;;;;;4953579;29;20438;-76
2022/05/27 15:13:55;;;;;;;3.63;1.40;;;16.00;96.30;;;;;;4960303;28;20877;-75
2022/05/27 15:16:32;;;;;;;3.00;1.27;;;16.00;96.30;;;;;;4970074;28;20426;-75
2022/05/27 15:19:17;;;;;;;3.93;1.40;;;15.90;96.30;;;;;;4972515;28;20433;-77
2022/05/27 15:22:08;;;;;;;6.57;1.87;;;15.60;96.30;;;;;;4972891;28;20821;-76
2022/05/27 15:24:37;;;;;;;3.80;1.60;;;15.30;96.30;;;;;;4956694;28;20432;-75
2022/05/27 15:33:22;;;;;;;3.13;1.17;;;15.30;96.30;;;;;;4970661;28;20464;-78
2022/05/27 15:35:50;;;;;;;5.50;1.90;;;15.30;96.30;;;;;;4953097;28;20436;-78
2022/05/27 15:38:22;;;;;;;3.07;1.50;;;15.20;96.30;;;;;;4971167;28;20460;-78
2022/05/27 15:40:48;;;;;;;4.40;1.00;;;15.40;96.30;;;;;;4965964;28;20481;-78
2022/05/27 15:43:17;;;;;;;7.57;1.60;;;15.60;96.30;;;;;;4965802;28;20569;-77
2022/05/27 15:45:44;;;;;;;3.03;1.40;;;15.50;96.30;;;;;;4972132;28;20886;-77
2022/05/27 15:48:15;;;;;;;3.40;1.30;;;16.00;96.30;;;;;;4972329;28;20484;-77
2022/05/27 15:50:42;;;;;;;3.03;1.23;;;16.40;96.30;;;;;;4972644;28;20449;-78
2022/05/27 15:53:08;;;;;;;5.10;1.50;;;16.10;96.30;;;;;;4972429;28;20936;-77
2022/05/27 15:55:34;;;;;;;3.63;1.20;;;16.20;96.30;;;;;;4971881;28;20460;-77
2022/05/27 15:57:59;;;;;;;3.60;1.70;;;16.10;96.30;;;;;;4971668;28;20914;-78
2022/05/27 16:00:25;;;;;;;9.43;1.20;;;15.80;96.30;;;;;;4972314;28;20248;-77
2022/05/27 16:02:51;;;;;;;4.13;1.10;;;15.60;96.30;;;;;;4954977;28;20228;-77
2022/05/27 16:05:16;;;;;;;3.43;1.37;;;15.40;96.30;;;;;;4972693;28;20194;-78
2022/05/27 16:07:42;;;;;;;4.93;1.53;;;15.30;96.30;;;;;;4972453;28;20174;-78
2022/05/27 16:10:08;;;;;;;2.87;1.33;;;15.30;96.30;;;;;;4973477;28;20178;-77
2022/05/27 16:12:35;;;;;;;4.10;1.60;;;15.80;96.30;;;;;;4972335;28;20265;-78
2022/05/27 16:15:01;;;;;;;7.53;1.10;;;16.40;96.30;;;;;;4970547;28;20453;-78
2022/05/27 16:20:11;;;;;;;2.10;1.20;;;17.20;96.30;;;;;;4976039;28;20241;-78
2022/05/27 16:22:39;;;;;;;2.27;1.00;;;17.20;96.30;;;;;;4958832;28;20515;-78
2022/05/27 16:25:07;;;;;;;5.13;1.23;;;17.10;96.10;;;;;;4978400;28;20410;-78
2022/05/27 16:27:34;;;;;;;2.63;1.20;;;16.60;96.30;;;;;;4983817;28;20421;-78
2022/05/27 16:30:02;;;;;;;2.90;1.30;;;16.40;96.30;;;;;;4967134;28;20491;-79
2022/05/27 16:32:28;;;;;;;5.37;1.40;;;16.50;96.30;;;;;;4963045;28;20532;-79
2022/05/27 16:34:54;;;;;;;3.60;1.50;;;16.40;96.30;;;;;;4977009;28;21146;-75
2022/05/27 16:37:19;;;;;;;5.13;1.57;;;16.30;96.30;;;;;;4976379;28;20418;-75
2022/05/27 16:39:45;;;;;;;6.13;1.67;;;16.40;95.40;;;;;;4974589;28;20194;-75
2022/05/27 16:52:32;;;;;;;5.37;1.43;;;16.00;94.80;;;;;;5337469;23;20496;-76
2022/05/27 16:54:58;;;;;;;3.90;1.30;;;16.00;96.20;;;;;;4990468;28;20912;-76
2022/05/27 16:57:24;;;;;;;4.60;1.40;;;15.80;94.80;;;;;;4977435;28;20185;-80
2022/05/27 16:59:50;;;;;;;3.30;1.27;;;16.00;96.30;;;;;;4980684;28;20175;-79
2022/05/27 17:02:17;;;;;;;4.70;1.37;;;16.10;94.70;;;;;;4960161;28;20462;-78
2022/05/27 17:04:43;;;;;;;6.30;1.47;;;16.10;93.90;;;;;;4963338;28;20895;-75
2022/05/27 17:07:08;;;;;;;8.30;2.10;;;16.20;93.40;;;;;;4965590;28;20414;-76
2022/05/27 17:09:34;;;;;;;6.93;1.43;;;16.10;93.60;;;;;;4963453;28;20885;-75
2022/05/27 17:11:59;;;;;;;3.03;1.50;;;16.20;93.40;;;;;;4963057;28;20205;-76
2022/05/27 17:14:25;;;;;;;6.40;1.60;;;16.10;92.60;;;;;;4966874;28;20182;-75
2022/05/27 17:16:50;;;;;;;3.50;1.20;;;15.80;87.00;;;;;;4975020;28;20225;-75
2022/05/27 17:19:16;;;;;;;3.87;1.30;;;15.60;87.20;;;;;;4956834;28;20307;-76
2022/05/27 17:21:42;;;;;;;8.77;1.10;;;15.50;87.60;;;;;;4965379;28;20222;-75
2022/05/27 17:24:12;;;;;;;8.87;1.30;;;15.50;87.70;;;;;;4973272;28;20178;-75
2022/05/27 17:26:38;;;;;;;3.80;1.10;;;15.40;87.10;;;;;;4962899;28;20188;-77
2022/05/27 17:29:04;;;;;;;1.97;1.00;;;15.40;86.50;;;;;;4965648;28;20406;-76
2022/05/27 17:31:30;;;;;;;6.73;1.60;;;15.30;86.00;;;;;;4968599;28;20438;-77
2022/05/27 17:33:55;;;;;;;6.40;1.27;;;15.20;86.90;;;;;;4965273;28;20635;-78
2022/05/27 17:36:21;;;;;;;6.83;1.30;;;15.10;86.30;;;;;;4971894;28;20174;-79
2022/05/27 17:38:46;;;;;;;8.40;1.00;;;14.90;85.20;;;;;;4956492;28;20237;-78
2022/05/27 17:41:12;;;;;;;3.10;1.40;;;14.80;87.40;;;;;;4947962;29;20206;-78
2022/05/27 17:43:39;;;;;;;5.03;0.90;;;14.70;88.30;;;;;;4945487;29;20277;-79
2022/05/27 17:46:08;;;;;;;2.13;1.00;;;14.70;87.00;;;;;;4953906;28;20174;-78
2022/05/27 17:51:22;;;;;;;12.20;1.50;;;14.40;87.20;;;;;;4974134;28;20432;-78
2022/05/27 17:53:47;;;;;;;7.83;1.87;;;14.30;87.20;;;;;;4974278;28;20429;-80
2022/05/27 17:56:14;;;;;;;2.57;1.23;;;14.20;88.60;;;;;;4974285;28;20786;-79
2022/05/27 17:58:40;;;;;;;2.03;1.37;;;14.20;87.70;;;;;;4938486;29;20535;-79
2022/05/27 18:01:05;;;;;;;2.30;1.20;;;14.10;88.30;;;;;;4936839;29;20573;-80
2022/05/27 18:03:31;;;;;;;2.63;1.10;;;14.00;87.80;;;;;;4954709;29;20202;-78
2022/05/27 18:05:56;;;;;;;4.63;1.63;;;13.90;89.40;;;;;;4954556;29;20183;-80
2022/05/27 18:08:22;;;;;;;4.73;1.53;;;13.80;90.70;;;;;;4936877;29;20537;-78